Time;durP1;ratioP1;P1;durP2;ratioP2;P2;SDS_P1;SDS_P2;PMS_P1;PMS_P2;Temp;Humidity;BMP_temperature;BMP_pressure;BME280_temperature;BME280_humidity;BME280_pressure;Samples;Min_cycle;Max_cycle;Signal;HPM_P1;HPM_P2
2023/08/31 05:38:16;;;;;;;6.17;3.80;;;;;;;;;;926423;22;20748;-91
2023/08/31 05:40:48;;;;;;;7.30;3.27;;;;;;;;;;4938480;28;20471;-95
2023/08/31 05:43:16;;;;;;;3.53;2.80;;;;;;;;;;4920836;29;20431;-94
2023/08/31 05:45:42;;;;;;;4.60;2.67;;;;;;;;;;4935167;28;20467;-94
2023/08/31 05:48:08;;;;;;;4.50;4.10;;;;;;;;;;4937216;29;20434;-94
2023/08/31 05:50:36;;;;;;;8.23;3.30;;;;;;;;;;4917510;29;20440;-93
2023/08/31 05:53:04;;;;;;;4.17;2.83;;;;;;;;;;4932764;29;20436;-96
2023/08/31 05:55:30;;;;;;;3.70;2.93;;;;;;;;;;4936814;28;20428;-94
2023/08/31 07:56:16;;;;;;;3.30;1.60;;;;;;;;;;1221705;22;20728;-92
2023/08/31 07:58:47;;;;;;;2.10;1.73;;;;;;;;;;4992806;28;20472;-93
2023/08/31 08:01:13;;;;;;;2.47;1.53;;;;;;;;;;4974811;28;20428;-95
2023/08/31 08:03:39;;;;;;;6.20;1.80;;;;;;;;;;4973273;28;20444;-93
2023/08/31 08:06:05;;;;;;;2.47;1.80;;;;;;;;;;4977809;28;20460;-94
2023/08/31 08:08:31;;;;;;;5.67;2.20;;;;;;;;;;4986893;28;20795;-94
2023/08/31 08:10:59;;;;;;;3.83;1.77;;;;;;;;;;4961284;28;20434;-93
2023/08/31 08:13:25;;;;;;;7.60;1.67;;;;;;;;;;4979364;28;20437;-94
2023/08/31 08:15:51;;;;;;;3.13;2.10;;;;;;;;;;4959833;28;20468;-93
2023/08/31 08:18:17;;;;;;;3.67;2.10;;;;;;;;;;4965208;28;20460;-93
2023/08/31 08:20:43;;;;;;;4.67;2.10;;;;;;;;;;4972992;28;20452;-94
2023/08/31 08:23:09;;;;;;;2.73;1.43;;;;;;;;;;4972978;28;20421;-93
2023/08/31 08:25:37;;;;;;;1.93;1.83;;;;;;;;;;4932395;28;20479;-93
2023/08/31 08:28:03;;;;;;;3.20;1.47;;;;;;;;;;4915350;29;20446;-92
2023/08/31 08:30:31;;;;;;;3.80;1.73;;;;;;;;;;4929463;29;20436;-93
2023/08/31 08:32:57;;;;;;;5.60;2.27;;;;;;;;;;4910641;29;20998;-93
2023/08/31 08:35:23;;;;;;;3.70;2.13;;;;;;;;;;4926990;28;20495;-95
2023/08/31 08:37:49;;;;;;;2.13;1.63;;;;;;;;;;4914324;29;20439;-94
2023/08/31 20:05:49;;;;;;;7.27;4.23;;;;;;;;;;811072;22;20760;-90
2023/08/31 20:08:17;;;;;;;6.33;4.17;;;;;;;;;;4976164;28;20482;-93
2023/08/31 20:10:46;;;;;;;5.20;3.30;;;;;;;;;;4967084;28;20437;-92
2023/08/31 20:13:12;;;;;;;5.77;2.90;;;;;;;;;;4960998;28;20950;-93
2023/08/31 20:15:38;;;;;;;6.83;2.60;;;;;;;;;;4957283;28;20437;-93
2023/08/31 20:18:04;;;;;;;7.97;3.80;;;;;;;;;;4978234;28;20436;-93
2023/08/31 20:20:30;;;;;;;8.10;2.97;;;;;;;;;;4980697;28;20417;-92
2023/08/31 20:22:57;;;;;;;7.63;2.70;;;;;;;;;;4974306;28;20436;-93
2023/08/31 20:25:25;;;;;;;6.93;3.03;;;;;;;;;;4981953;28;20472;-93
2023/08/31 20:27:54;;;;;;;8.67;3.10;;;;;;;;;;4975390;28;20463;-92
2023/08/31 20:30:20;;;;;;;7.50;3.70;;;;;;;;;;4977567;28;20515;-93
2023/08/31 20:32:46;;;;;;;7.90;2.83;;;;;;;;;;4969912;28;20428;-90
2023/08/31 20:35:16;;;;;;;6.03;3.37;;;;;;;;;;4984828;28;20417;-94
2023/08/31 20:37:42;;;;;;;7.93;2.93;;;;;;;;;;4989729;28;20571;-93
2023/08/31 20:40:11;;;;;;;6.47;2.80;;;;;;;;;;4969488;28;20428;-93
2023/08/31 20:42:39;;;;;;;6.63;2.83;;;;;;;;;;4994672;28;20436;-92
2023/08/31 20:45:12;;;;;;;9.07;2.80;;;;;;;;;;4975366;28;20417;-93
2023/08/31 20:47:44;;;;;;;6.20;2.13;;;;;;;;;;4976174;28;20525;-93
2023/08/31 20:50:12;;;;;;;4.30;2.30;;;;;;;;;;4985202;28;20412;-91
2023/08/31 20:52:45;;;;;;;8.20;3.17;;;;;;;;;;4977811;28;20416;-92
2023/08/31 20:55:20;;;;;;;5.33;2.90;;;;;;;;;;5014218;28;20450;-93
2023/08/31 20:57:46;;;;;;;6.33;3.37;;;;;;;;;;4984981;28;20450;-93
2023/08/31 21:00:14;;;;;;;6.77;3.10;;;;;;;;;;4978250;28;20422;-93
2023/08/31 21:02:43;;;;;;;6.67;2.33;;;;;;;;;;4976383;28;20429;-92
2023/08/31 21:05:10;;;;;;;3.57;3.27;;;;;;;;;;4975150;28;20413;-92
2023/08/31 21:07:36;;;;;;;5.37;3.93;;;;;;;;;;4978791;28;20971;-93
2023/08/31 21:10:03;;;;;;;6.60;2.50;;;;;;;;;;4977298;28;20421;-93
2023/08/31 21:12:29;;;;;;;8.00;2.77;;;;;;;;;;4984238;28;20444;-93
2023/08/31 21:14:55;;;;;;;4.37;2.87;;;;;;;;;;4975046;28;20816;-92
2023/08/31 21:17:21;;;;;;;9.93;2.80;;;;;;;;;;4976090;28;20523;-93
2023/08/31 21:19:47;;;;;;;3.07;2.67;;;;;;;;;;4974899;28;20433;-93
2023/08/31 21:22:13;;;;;;;5.03;2.77;;;;;;;;;;4974653;28;20424;-93
2023/08/31 21:24:39;;;;;;;4.83;3.10;;;;;;;;;;4982032;28;20483;-92
2023/08/31 21:27:05;;;;;;;8.23;3.27;;;;;;;;;;4952551;28;20482;-93
2023/08/31 21:29:31;;;;;;;4.90;2.93;;;;;;;;;;4940359;29;20487;-92
2023/08/31 21:31:57;;;;;;;2.60;2.27;;;;;;;;;;4927937;29;20977;-93
2023/08/31 21:34:23;;;;;;;6.70;3.40;;;;;;;;;;4949945;28;20465;-93
2023/08/31 21:36:49;;;;;;;7.37;2.87;;;;;;;;;;4939006;29;20451;-93
2023/08/31 21:39:15;;;;;;;10.73;3.80;;;;;;;;;;4944179;28;20451;-93
2023/08/31 21:41:42;;;;;;;8.20;3.13;;;;;;;;;;4928389;29;20438;-92
2023/08/31 21:44:09;;;;;;;4.47;3.20;;;;;;;;;;4930215;28;20434;-93
2023/08/31 21:46:37;;;;;;;4.30;3.00;;;;;;;;;;4944777;29;21047;-92
2023/08/31 21:49:03;;;;;;;5.10;3.90;;;;;;;;;;4928027;28;20520;-92
2023/08/31 21:51:29;;;;;;;5.23;3.50;;;;;;;;;;4920966;29;20513;-93
2023/08/31 21:53:56;;;;;;;9.07;3.40;;;;;;;;;;4900523;29;20457;-93
2023/08/31 21:56:22;;;;;;;6.03;3.50;;;;;;;;;;4892655;29;20942;-93
2023/08/31 21:58:50;;;;;;;4.30;2.80;;;;;;;;;;4937687;29;20591;-93
2023/08/31 22:01:16;;;;;;;4.83;2.70;;;;;;;;;;4934056;29;20547;-92
2023/08/31 22:03:42;;;;;;;3.43;3.13;;;;;;;;;;4934136;29;20548;-92
2023/08/31 22:06:08;;;;;;;7.67;3.20;;;;;;;;;;4957721;28;20497;-93
2023/08/31 22:08:35;;;;;;;3.43;3.10;;;;;;;;;;4937069;29;20526;-92
2023/08/31 22:11:01;;;;;;;6.47;3.10;;;;;;;;;;4960250;28;20437;-93
2023/08/31 22:13:27;;;;;;;6.50;3.50;;;;;;;;;;4929354;29;20443;-92
2023/08/31 22:15:54;;;;;;;6.90;3.80;;;;;;;;;;4935581;29;20447;-92
2023/08/31 22:18:20;;;;;;;9.07;4.60;;;;;;;;;;4930248;29;20442;-93
2023/08/31 22:20:46;;;;;;;4.90;3.13;;;;;;;;;;4951929;28;20422;-92
2023/08/31 22:23:12;;;;;;;6.47;3.60;;;;;;;;;;4976523;28;20425;-91
2023/08/31 22:25:38;;;;;;;11.97;4.13;;;;;;;;;;4974011;28;20424;-93
2023/08/31 22:28:04;;;;;;;11.53;3.50;;;;;;;;;;4978137;28;20471;-93
2023/08/31 22:30:30;;;;;;;8.10;4.17;;;;;;;;;;4975567;28;20420;-93
2023/08/31 22:32:56;;;;;;;6.60;4.20;;;;;;;;;;4976951;28;20440;-92
2023/08/31 22:35:22;;;;;;;6.60;3.27;;;;;;;;;;4970450;28;20445;-92
2023/08/31 22:37:48;;;;;;;5.77;3.20;;;;;;;;;;4968797;28;20426;-92
2023/08/31 22:40:32;;;;;;;7.67;3.50;;;;;;;;;;4983658;28;20421;-93
2023/08/31 22:42:58;;;;;;;5.37;4.27;;;;;;;;;;4996909;28;20431;-93
2023/08/31 22:45:25;;;;;;;8.77;3.33;;;;;;;;;;4975384;28;20480;-92
2023/08/31 22:47:53;;;;;;;3.97;3.50;;;;;;;;;;4975959;28;20472;-92
2023/08/31 22:50:19;;;;;;;7.20;3.80;;;;;;;;;;4984168;28;20437;-92
2023/08/31 22:52:45;;;;;;;5.23;3.60;;;;;;;;;;4976955;28;20409;-93
2023/08/31 22:55:11;;;;;;;7.73;4.00;;;;;;;;;;4981908;28;20406;-93
2023/08/31 22:57:37;;;;;;;4.13;3.33;;;;;;;;;;4973865;28;20433;-92
2023/08/31 23:00:05;;;;;;;3.40;3.10;;;;;;;;;;4983074;28;20435;-92
2023/08/31 23:02:31;;;;;;;7.83;3.67;;;;;;;;;;4981848;28;20413;-92
2023/08/31 23:04:57;;;;;;;7.57;4.67;;;;;;;;;;4980023;28;20429;-93
2023/08/31 23:07:23;;;;;;;5.00;3.60;;;;;;;;;;4972393;28;20503;-93
2023/08/31 23:09:55;;;;;;;8.53;3.43;;;;;;;;;;4980784;28;20428;-93
2023/08/31 23:12:21;;;;;;;6.77;3.47;;;;;;;;;;4997129;28;20424;-92
2023/08/31 23:14:47;;;;;;;6.40;3.70;;;;;;;;;;4976949;28;20529;-94
2023/08/31 23:17:17;;;;;;;4.07;3.67;;;;;;;;;;4980403;28;20445;-92
2023/08/31 23:19:43;;;;;;;6.87;3.00;;;;;;;;;;4987064;28;20433;-92
2023/08/31 23:22:09;;;;;;;4.00;2.80;;;;;;;;;;4975844;28;20414;-92
2023/08/31 23:24:35;;;;;;;2.37;2.10;;;;;;;;;;4980536;28;20432;-93
2023/08/31 23:27:01;;;;;;;9.53;3.13;;;;;;;;;;4975098;28;20476;-92
2023/08/31 23:29:27;;;;;;;2.60;2.13;;;;;;;;;;4976697;28;20440;-94
2023/08/31 23:31:52;;;;;;;4.17;2.70;;;;;;;;;;4977951;28;20474;-92
2023/08/31 23:34:18;;;;;;;4.80;2.87;;;;;;;;;;4976033;28;20424;-93
2023/08/31 23:36:44;;;;;;;3.80;1.93;;;;;;;;;;4971879;28;20520;-92
2023/08/31 23:39:11;;;;;;;2.60;1.97;;;;;;;;;;4987357;28;20450;-92
2023/08/31 23:41:37;;;;;;;6.27;1.90;;;;;;;;;;4981041;28;20424;-93
2023/08/31 23:44:03;;;;;;;3.67;2.17;;;;;;;;;;4967680;28;20421;-92
2023/08/31 23:46:29;;;;;;;2.77;1.90;;;;;;;;;;4964655;28;20425;-92
2023/08/31 23:48:57;;;;;;;4.63;2.13;;;;;;;;;;4957328;28;20882;-92
2023/08/31 23:51:23;;;;;;;4.00;2.00;;;;;;;;;;4977773;28;20423;-93
2023/08/31 23:53:49;;;;;;;2.30;1.70;;;;;;;;;;4981090;28;20488;-92
2023/08/31 23:56:15;;;;;;;1.97;1.63;;;;;;;;;;4996029;28;20433;-93
2023/08/31 23:58:41;;;;;;;2.33;1.87;;;;;;;;;;4972028;28;20424;-93
